Terminal Aerodrome Forecast
Issued by NWS

Home | Current Version | Previous Version | Graphics & Text | Print | Product List | Glossary On
Versions: 1 2 3 4 5 6 7 8 9 10 11 12 13 14 15 16 17 18 19 20 21 22 23
000
FTUS43 KABR 151300 AAA
TAFPIR
TAF AMD
KPIR 151333Z 1514/1612 35020G28KT 2SM -SN BR OVC010
      TEMPO 1514/1516 3/4SM -FZRASN BR OVC007
     FM151600 34022G33KT 1SM -SN OVC010
     FM160000 33015KT P6SM OVC015=

USA.gov is the U.S. government's official web portal to all federal, state and local government web resources and services.